Time;durP1;ratioP1;P1;durP2;ratioP2;P2;SDS_P1;SDS_P2;PMS_P1;PMS_P2;Temp;Humidity;BMP_temperature;BMP_pressure;BME280_temperature;BME280_humidity;BME280_pressure;Samples;Min_cycle;Max_cycle;Signal;HPM_P1;HPM_P2
2022/01/27 00:00:43;;;;;;;65.05;31.15;;;5.90;78.70;;;;;;5017832;28;20033;-78
2022/01/27 00:05:37;;;;;;;71.25;28.70;;;5.90;78.50;;;;;;5035029;28;20030;-78
2022/01/27 00:11:12;;;;;;;64.40;30.02;;;5.90;78.60;;;;;;5034770;28;20121;-78
2022/01/27 00:13:32;;;;;;;68.72;28.10;;;5.90;78.50;;;;;;5035344;28;20436;-78
2022/01/27 00:16:41;;;;;;;60.60;27.35;;;5.90;78.50;;;;;;5034115;28;20029;-78
2022/01/27 00:18:57;;;;;;;52.97;25.77;;;5.80;78.20;;;;;;5015699;28;20377;-78
2022/01/27 00:21:30;;;;;;;65.05;27.30;;;5.90;78.40;;;;;;5014899;28;20030;-78
2022/01/27 00:23:56;;;;;;;62.97;27.67;;;5.90;78.30;;;;;;5025004;28;20029;-78
2022/01/27 00:26:22;;;;;;;57.22;25.30;;;5.90;78.30;;;;;;5034621;28;20033;-78
2022/01/27 00:28:49;;;;;;;64.55;27.80;;;6.00;78.30;;;;;;5034215;28;20388;-78
2022/01/27 00:31:20;;;;;;;59.17;26.00;;;6.00;78.10;;;;;;5034171;28;20051;-78
2022/01/27 00:33:48;;;;;;;62.15;25.13;;;6.00;77.80;;;;;;5034008;28;20025;-78
2022/01/27 00:36:14;;;;;;;70.10;27.73;;;6.00;77.90;;;;;;5033815;28;20429;-78
2022/01/27 00:38:42;;;;;;;58.17;26.42;;;6.00;78.10;;;;;;5034670;28;20037;-78
2022/01/27 00:41:08;;;;;;;64.25;27.55;;;6.00;78.20;;;;;;5032610;28;20037;-78
2022/01/27 00:43:33;;;;;;;58.10;26.65;;;6.00;78.00;;;;;;5034671;28;20789;-78
2022/01/27 00:45:59;;;;;;;57.38;27.63;;;6.00;78.20;;;;;;5033766;28;20034;-78
2022/01/27 00:48:25;;;;;;;62.13;27.75;;;6.00;78.00;;;;;;5034062;28;20022;-78
2022/01/27 00:50:57;;;;;;;66.55;27.48;;;5.90;78.30;;;;;;5034497;28;20108;-77
2022/01/27 00:53:38;;;;;;;61.42;27.85;;;5.90;78.10;;;;;;5036325;28;20091;-78
2022/01/27 00:56:19;;;;;;;57.47;26.70;;;5.80;78.30;;;;;;5034320;28;20462;-77
2022/01/27 00:59:00;;;;;;;58.28;26.95;;;5.90;78.40;;;;;;5034671;28;20021;-78
2022/01/27 01:01:56;;;;;;;60.05;27.90;;;6.00;78.40;;;;;;5039989;28;20028;-78
2022/01/27 01:04:28;;;;;;;70.75;27.27;;;6.00;78.10;;;;;;5052475;28;20056;-78
2022/01/27 01:06:54;;;;;;;60.53;27.52;;;6.00;77.90;;;;;;5054007;28;20029;-78
2022/01/27 01:14:42;;;;;;;69.40;29.35;;;5.90;78.00;;;;;;5038078;28;20428;-78
2022/01/27 01:32:50;;;;;;;57.42;26.55;;;5.70;78.90;;;;;;5037276;28;20029;-77
2022/01/27 01:35:17;;;;;;;62.65;25.65;;;5.80;78.70;;;;;;5037482;28;20713;-78
2022/01/27 01:37:44;;;;;;;65.13;27.08;;;5.80;78.60;;;;;;5037454;28;20112;-78
2022/01/27 01:40:16;;;;;;;72.95;29.17;;;5.80;78.50;;;;;;5035916;28;20108;-78
2022/01/27 01:42:43;;;;;;;66.80;28.95;;;5.70;78.60;;;;;;5036614;28;20030;-78
2022/01/27 01:45:12;;;;;;;67.95;28.77;;;5.70;78.70;;;;;;5036661;28;20076;-78
2022/01/27 01:47:38;;;;;;;65.30;28.20;;;5.70;78.60;;;;;;5037317;28;20026;-78
2022/01/27 01:50:07;;;;;;;65.40;27.30;;;5.60;78.80;;;;;;5037420;28;20022;-78
2022/01/27 01:52:33;;;;;;;69.78;27.77;;;5.60;79.30;;;;;;5037204;28;20021;-78
2022/01/27 01:54:59;;;;;;;67.85;28.70;;;5.70;79.00;;;;;;5047521;28;20476;-78
2022/01/27 01:57:25;;;;;;;60.38;27.55;;;5.70;78.80;;;;;;5037365;28;20030;-78
2022/01/27 01:59:51;;;;;;;65.80;27.38;;;5.80;78.80;;;;;;5036393;28;20029;-78
2022/01/27 02:02:17;;;;;;;60.10;25.38;;;5.70;78.90;;;;;;5036817;28;20033;-78
2022/01/27 02:04:43;;;;;;;67.38;27.58;;;5.80;78.80;;;;;;5036499;28;20147;-77
2022/01/27 02:07:39;;;;;;;61.65;27.50;;;5.70;78.60;;;;;;5036988;28;20467;-78
2022/01/27 02:18:07;;;;;;;60.83;25.75;;;5.80;78.40;;;;;;5036409;28;20037;-78
2022/01/27 02:20:35;;;;;;;67.95;27.45;;;5.90;78.60;;;;;;5036136;28;20049;-78
2022/01/27 02:23:04;;;;;;;67.93;29.05;;;5.90;78.60;;;;;;5036627;28;20483;-78
2022/01/27 02:25:30;;;;;;;71.63;28.20;;;5.90;78.50;;;;;;5033839;28;20431;-78
2022/01/27 02:27:57;;;;;;;60.72;27.00;;;5.90;78.40;;;;;;5036588;28;20064;-78
2022/01/27 02:30:23;;;;;;;64.70;28.45;;;5.80;78.60;;;;;;5034656;28;20111;-78
2022/01/27 02:32:55;;;;;;;59.83;26.83;;;5.80;78.50;;;;;;5031760;28;20034;-78
2022/01/27 02:35:24;;;;;;;57.38;26.52;;;5.90;78.70;;;;;;5048073;28;20022;-77
2022/01/27 02:37:54;;;;;;;64.40;26.85;;;5.90;78.80;;;;;;5024439;28;20117;-78
2022/01/27 02:40:27;;;;;;;62.17;27.80;;;5.90;78.70;;;;;;5036299;28;20017;-78
2022/01/27 02:42:53;;;;;;;66.32;27.00;;;5.90;78.40;;;;;;5035569;28;20105;-78
2022/01/27 02:45:32;;;;;;;67.00;27.45;;;5.80;78.50;;;;;;5036029;28;20022;-78
2022/01/27 02:47:58;;;;;;;69.10;28.80;;;5.80;78.60;;;;;;5036107;28;20034;-78
2022/01/27 02:50:24;;;;;;;60.47;27.50;;;5.90;78.60;;;;;;5036032;28;20040;-78
2022/01/27 02:52:49;;;;;;;63.05;29.52;;;5.90;78.70;;;;;;5036863;28;20461;-78
2022/01/27 02:55:32;;;;;;;62.90;27.42;;;5.90;78.60;;;;;;5055803;28;20025;-78
2022/01/27 02:57:59;;;;;;;62.55;27.83;;;5.90;78.50;;;;;;5041849;28;20053;-78
2022/01/27 03:00:25;;;;;;;60.67;25.55;;;5.80;78.60;;;;;;5035701;28;20128;-78
2022/01/27 03:02:50;;;;;;;71.95;29.77;;;5.80;78.60;;;;;;5034372;28;20057;-78
2022/01/27 03:05:16;;;;;;;67.13;27.58;;;5.90;78.50;;;;;;5035674;28;20124;-78
2022/01/27 03:07:43;;;;;;;63.85;27.30;;;5.90;78.60;;;;;;5035239;28;20435;-78
2022/01/27 03:10:08;;;;;;;63.38;27.45;;;5.90;78.60;;;;;;5035386;28;20068;-78
2022/01/27 03:12:37;;;;;;;63.97;27.27;;;5.90;78.30;;;;;;5035658;28;20030;-78
2022/01/27 03:15:05;;;;;;;68.18;27.25;;;5.90;78.50;;;;;;5034898;28;20021;-78
2022/01/27 03:17:30;;;;;;;73.05;28.98;;;5.90;78.20;;;;;;5035575;28;20393;-78
2022/01/27 03:19:56;;;;;;;54.80;26.23;;;5.80;78.60;;;;;;5035594;28;20116;-77
2022/01/27 03:22:22;;;;;;;70.47;27.08;;;5.80;78.60;;;;;;5035548;28;20562;-78
2022/01/27 03:24:48;;;;;;;58.35;24.40;;;5.80;78.70;;;;;;5034841;28;20029;-78
2022/01/27 03:27:19;;;;;;;62.60;26.05;;;5.80;78.50;;;;;;5035166;28;20033;-78
2022/01/27 03:29:45;;;;;;;62.00;26.27;;;5.70;79.00;;;;;;5035170;28;20532;-78
2022/01/27 03:32:10;;;;;;;73.82;26.15;;;5.60;79.50;;;;;;5035000;28;20033;-78
2022/01/27 03:34:36;;;;;;;66.03;28.73;;;5.70;79.40;;;;;;5034861;28;20093;-78
2022/01/27 03:37:02;;;;;;;56.20;23.50;;;5.60;79.10;;;;;;5035271;28;20029;-78
2022/01/27 03:39:28;;;;;;;62.17;26.00;;;5.70;79.30;;;;;;5034562;28;20033;-78
2022/01/27 03:41:56;;;;;;;74.18;28.90;;;5.70;79.10;;;;;;5034613;28;20032;-78
2022/01/27 03:44:22;;;;;;;65.57;27.00;;;5.70;78.80;;;;;;5034619;28;20498;-78
2022/01/27 03:46:55;;;;;;;73.55;29.20;;;5.70;79.10;;;;;;5035029;28;20025;-78
2022/01/27 03:49:20;;;;;;;69.10;27.05;;;5.50;79.40;;;;;;5034502;28;20018;-78
2022/01/27 03:51:46;;;;;;;61.28;25.33;;;5.50;79.70;;;;;;5033635;28;20052;-78
2022/01/27 03:54:13;;;;;;;59.90;25.55;;;5.50;79.50;;;;;;5047880;28;20025;-78
2022/01/27 03:56:39;;;;;;;55.67;25.02;;;5.50;79.60;;;;;;5036111;28;20116;-78
2022/01/27 03:59:05;;;;;;;61.92;24.52;;;5.60;79.30;;;;;;5033568;28;20064;-78
2022/01/27 04:01:31;;;;;;;59.95;25.27;;;5.60;79.30;;;;;;5032659;28;20128;-78
2022/01/27 04:04:01;;;;;;;64.88;24.65;;;5.60;79.20;;;;;;5034709;28;20037;-78
2022/01/27 04:06:36;;;;;;;62.07;26.77;;;5.60;79.10;;;;;;5033599;28;20032;-78
2022/01/27 04:09:03;;;;;;;68.97;26.35;;;5.60;79.30;;;;;;5034292;28;20157;-78
2022/01/27 04:11:29;;;;;;;66.97;24.58;;;5.50;79.20;;;;;;5034927;28;20045;-78
2022/01/27 04:13:55;;;;;;;62.95;27.63;;;5.50;79.30;;;;;;5034350;28;20534;-78
2022/01/27 04:16:21;;;;;;;58.10;24.52;;;5.50;79.00;;;;;;5033387;28;20025;-78
2022/01/27 04:18:47;;;;;;;62.05;25.83;;;5.50;79.20;;;;;;5049066;28;20116;-78
2022/01/27 04:21:14;;;;;;;66.97;26.10;;;5.50;79.10;;;;;;5050186;28;20029;-78
2022/01/27 04:23:39;;;;;;;58.22;25.48;;;5.50;79.10;;;;;;5034891;28;20467;-78
2022/01/27 04:26:06;;;;;;;56.83;26.25;;;5.40;79.20;;;;;;5034602;28;20041;-78
2022/01/27 04:28:34;;;;;;;45.60;21.92;;;5.40;79.20;;;;;;5034150;28;20075;-78
2022/01/27 04:31:03;;;;;;;49.92;22.25;;;5.50;79.10;;;;;;5034735;28;20018;-78
2022/01/27 04:33:31;;;;;;;54.38;23.38;;;5.40;79.30;;;;;;5034545;28;20080;-78
2022/01/27 04:36:00;;;;;;;54.92;23.75;;;5.40;79.50;;;;;;5034486;28;20075;-78
2022/01/27 04:38:38;;;;;;;54.47;23.05;;;5.50;79.10;;;;;;5033896;28;20029;-78
2022/01/27 04:41:08;;;;;;;52.63;23.25;;;5.40;79.20;;;;;;5034512;28;20029;-78
2022/01/27 04:44:06;;;;;;;63.13;23.00;;;5.50;79.20;;;;;;5034517;28;20064;-78
2022/01/27 04:47:10;;;;;;;54.13;22.52;;;5.50;79.00;;;;;;5036066;28;20030;-78
2022/01/27 04:49:24;;;;;;;57.45;22.02;;;5.60;78.90;;;;;;5038115;28;20045;-78
2022/01/27 04:51:50;;;;;;;56.40;21.17;;;5.60;78.90;;;;;;5037623;28;20029;-78
2022/01/27 04:54:23;;;;;;;56.92;22.27;;;5.50;79.40;;;;;;5051451;28;20029;-78
2022/01/27 04:56:48;;;;;;;56.35;24.65;;;5.50;79.30;;;;;;5057115;28;20021;-78
2022/01/27 04:59:25;;;;;;;63.35;23.88;;;5.60;79.00;;;;;;5043242;28;20029;-78
2022/01/27 05:01:57;;;;;;;57.75;24.60;;;5.60;78.60;;;;;;5038221;28;20036;-78
2022/01/27 05:04:29;;;;;;;59.67;25.65;;;5.60;78.70;;;;;;5037716;28;20128;-78
2022/01/27 05:06:54;;;;;;;61.67;24.67;;;5.50;78.60;;;;;;5037948;28;20037;-77
2022/01/27 05:09:22;;;;;;;56.17;23.85;;;5.60;78.80;;;;;;5037470;28;20029;-78
2022/01/27 05:11:55;;;;;;;51.63;24.17;;;5.50;78.60;;;;;;5037678;28;20102;-78
2022/01/27 05:14:25;;;;;;;58.83;23.70;;;5.50;78.90;;;;;;5037972;28;20371;-78
2022/01/27 05:16:53;;;;;;;53.58;23.60;;;5.50;78.80;;;;;;5037344;28;20064;-78
2022/01/27 05:19:19;;;;;;;59.88;23.48;;;5.50;78.90;;;;;;5037708;28;20059;-77
2022/01/27 05:21:45;;;;;;;58.95;23.15;;;5.60;78.70;;;;;;5037065;28;20104;-77
2022/01/27 05:24:12;;;;;;;49.75;20.80;;;5.60;79.00;;;;;;5037809;28;20104;-78
2022/01/27 05:26:39;;;;;;;53.08;21.50;;;5.50;79.10;;;;;;5037687;28;20067;-78
2022/01/27 05:29:17;;;;;;;46.60;20.90;;;5.50;79.10;;;;;;5037187;28;20030;-76
2022/01/27 05:31:43;;;;;;;52.53;20.85;;;5.50;78.80;;;;;;5037167;28;20022;-77
2022/01/27 05:34:09;;;;;;;51.08;22.08;;;5.50;79.00;;;;;;5036261;28;20502;-78
2022/01/27 05:36:34;;;;;;;56.30;21.33;;;5.50;78.90;;;;;;5037425;28;20052;-78
2022/01/27 05:39:01;;;;;;;49.00;20.70;;;5.60;78.80;;;;;;5037264;28;20033;-78
2022/01/27 05:41:27;;;;;;;53.83;21.77;;;5.60;78.90;;;;;;5037360;28;20025;-78
2022/01/27 05:43:53;;;;;;;55.55;22.58;;;5.70;78.50;;;;;;5037196;28;20044;-78
2022/01/27 05:46:28;;;;;;;53.90;23.48;;;5.60;78.70;;;;;;5036664;28;20650;-78
2022/01/27 05:48:54;;;;;;;52.92;22.35;;;5.60;78.80;;;;;;5037238;28;20025;-78
2022/01/27 05:51:19;;;;;;;61.85;24.33;;;5.60;78.70;;;;;;5036861;28;20470;-79
2022/01/27 05:56:20;;;;;;;69.05;26.55;;;5.60;78.90;;;;;;5053126;28;20450;-82
2022/01/27 05:58:46;;;;;;;73.38;27.35;;;5.40;79.40;;;;;;5051144;28;20033;-80
2022/01/27 06:01:12;;;;;;;59.13;25.65;;;5.30;79.70;;;;;;5050436;28;20098;-82
2022/01/27 06:03:38;;;;;;;56.85;21.75;;;5.20;79.90;;;;;;5057687;28;20036;-82
2022/01/27 06:06:04;;;;;;;58.80;23.58;;;5.30;79.70;;;;;;5071996;28;20024;-85
2022/01/27 06:08:30;;;;;;;54.15;20.80;;;5.30;79.80;;;;;;5071744;28;20471;-82
2022/01/27 06:10:57;;;;;;;54.78;22.25;;;5.40;79.60;;;;;;5070949;28;20111;-85
2022/01/27 06:13:23;;;;;;;54.92;22.63;;;5.50;79.30;;;;;;5072079;28;20059;-88
2022/01/27 06:15:48;;;;;;;52.22;20.77;;;5.40;79.30;;;;;;5070876;28;20111;-81
2022/01/27 06:18:14;;;;;;;56.70;23.27;;;5.40;79.30;;;;;;5070678;28;20591;-80
2022/01/27 06:20:43;;;;;;;50.90;22.70;;;5.60;79.10;;;;;;5071829;28;20140;-77
2022/01/27 06:23:09;;;;;;;52.83;22.40;;;5.60;78.70;;;;;;5067957;28;21765;-77
2022/01/27 06:25:35;;;;;;;46.08;21.75;;;5.50;79.00;;;;;;5054278;28;20470;-82
2022/01/27 06:28:01;;;;;;;50.60;22.10;;;5.60;79.00;;;;;;5071813;28;20055;-80
2022/01/27 06:30:27;;;;;;;45.92;21.85;;;5.60;79.10;;;;;;5071625;28;20021;-77
2022/01/27 06:32:52;;;;;;;57.15;23.70;;;5.70;79.10;;;;;;5070359;28;20027;-82
2022/01/27 06:35:18;;;;;;;51.15;22.92;;;5.70;78.70;;;;;;5071418;28;20063;-82
2022/01/27 06:37:47;;;;;;;60.78;23.73;;;5.70;78.70;;;;;;5065597;28;20449;-82
2022/01/27 06:40:14;;;;;;;46.17;21.95;;;5.70;78.50;;;;;;5072715;28;20036;-81
2022/01/27 06:42:41;;;;;;;43.72;20.40;;;5.80;78.40;;;;;;5089724;28;20783;-83
2022/01/27 06:45:08;;;;;;;44.20;21.85;;;5.80;78.30;;;;;;5086336;28;20028;-83
2022/01/27 06:47:34;;;;;;;54.13;21.85;;;5.70;78.50;;;;;;5091339;28;20086;-80
2022/01/27 06:50:00;;;;;;;57.60;23.95;;;5.70;78.40;;;;;;5081695;28;20021;-83
2022/01/27 06:52:27;;;;;;;45.90;21.75;;;5.50;79.00;;;;;;5051245;28;20068;-83
2022/01/27 06:54:55;;;;;;;61.58;24.17;;;5.50;79.10;;;;;;5066714;28;20532;-83
2022/01/27 06:57:21;;;;;;;55.85;23.15;;;5.50;79.30;;;;;;5070657;28;20151;-83
2022/01/27 06:59:47;;;;;;;56.05;23.52;;;5.60;79.40;;;;;;5061638;28;20040;-83
2022/01/27 07:02:13;;;;;;;56.85;24.17;;;5.50;79.30;;;;;;5050873;28;20037;-83
2022/01/27 07:04:38;;;;;;;49.90;23.13;;;5.60;79.20;;;;;;5050711;28;20036;-82
2022/01/27 07:07:04;;;;;;;54.95;22.13;;;5.60;79.00;;;;;;5040900;28;20902;-81
2022/01/27 07:09:29;;;;;;;61.60;25.55;;;5.60;79.00;;;;;;5036207;28;20026;-81
2022/01/27 07:11:55;;;;;;;53.03;23.15;;;5.60;79.00;;;;;;5038710;28;20053;-81
2022/01/27 07:14:21;;;;;;;55.40;23.05;;;5.50;78.90;;;;;;5046223;28;20025;-81
2022/01/27 07:16:47;;;;;;;58.53;23.85;;;5.50;79.40;;;;;;5045548;28;20028;-82
2022/01/27 07:19:13;;;;;;;57.78;23.08;;;5.50;79.10;;;;;;5074491;28;20029;-81
2022/01/27 07:21:38;;;;;;;59.63;25.25;;;5.40;79.10;;;;;;5063252;28;20017;-80
2022/01/27 07:24:06;;;;;;;53.15;23.75;;;5.40;79.50;;;;;;5050897;28;20026;-81
2022/01/27 07:26:32;;;;;;;46.80;22.23;;;5.30;79.30;;;;;;5042520;28;20630;-79
2022/01/27 07:28:58;;;;;;;51.55;23.30;;;5.30;79.00;;;;;;5053901;28;20033;-81
2022/01/27 07:31:24;;;;;;;50.13;22.10;;;5.40;79.40;;;;;;5037003;28;20100;-80
2022/01/27 07:33:52;;;;;;;51.05;19.95;;;5.50;78.90;;;;;;5037015;28;20395;-81
2022/01/27 07:36:18;;;;;;;50.03;21.95;;;5.50;78.90;;;;;;5040722;28;20078;-81
2022/01/27 07:38:46;;;;;;;54.20;21.83;;;5.30;78.60;;;;;;5056256;28;20021;-82
2022/01/27 07:41:16;;;;;;;52.80;22.40;;;5.10;78.80;;;;;;5055227;28;20017;-82
2022/01/27 07:43:42;;;;;;;47.75;19.25;;;5.10;79.20;;;;;;5055618;28;20087;-83
2022/01/27 07:46:18;;;;;;;42.40;19.13;;;5.00;79.50;;;;;;5044687;28;20028;-82
2022/01/27 07:48:44;;;;;;;47.55;20.73;;;5.00;79.40;;;;;;5047915;28;20324;-82
2022/01/27 07:51:11;;;;;;;48.33;21.58;;;5.20;79.50;;;;;;5052219;28;20040;-82
2022/01/27 07:53:37;;;;;;;50.45;21.13;;;5.30;79.20;;;;;;5047958;28;20041;-79
2022/01/27 07:56:04;;;;;;;43.85;20.15;;;5.40;78.80;;;;;;5042231;28;20042;-80
2022/01/27 07:58:31;;;;;;;52.88;20.80;;;5.50;78.70;;;;;;5036302;28;20026;-80
2022/01/27 08:00:57;;;;;;;48.22;19.98;;;5.60;78.20;;;;;;5036166;28;20014;-76
2022/01/27 08:03:24;;;;;;;39.83;20.70;;;5.70;77.80;;;;;;5035915;28;20112;-79
2022/01/27 08:05:51;;;;;;;47.05;20.30;;;5.60;77.60;;;;;;5034937;28;20056;-79
2022/01/27 08:08:17;;;;;;;42.30;19.80;;;5.60;77.20;;;;;;5050746;28;20048;-79
2022/01/27 08:10:44;;;;;;;45.92;20.63;;;5.60;77.80;;;;;;5036373;28;20502;-77
2022/01/27 08:13:11;;;;;;;51.05;21.10;;;5.70;77.90;;;;;;5051051;28;20124;-77
2022/01/27 08:15:36;;;;;;;53.40;21.30;;;5.70;77.70;;;;;;5045875;28;20467;-76
2022/01/27 08:18:03;;;;;;;55.60;21.02;;;5.70;77.30;;;;;;5043406;28;20055;-77
2022/01/27 08:20:30;;;;;;;46.88;19.33;;;5.70;77.50;;;;;;5041608;28;20033;-77
2022/01/27 08:22:55;;;;;;;47.40;19.88;;;5.70;77.30;;;;;;5045179;28;20434;-77
2022/01/27 08:25:23;;;;;;;44.42;19.98;;;5.80;77.50;;;;;;5044301;28;20021;-77
2022/01/27 08:27:52;;;;;;;44.05;18.13;;;5.90;77.20;;;;;;5040311;28;20038;-76
2022/01/27 08:30:19;;;;;;;41.33;19.52;;;5.80;76.90;;;;;;5035422;28;20021;-76
2022/01/27 08:35:16;;;;;;;46.03;21.10;;;6.00;77.10;;;;;;5035774;28;20107;-77
2022/01/27 08:37:42;;;;;;;46.60;18.80;;;6.00;76.80;;;;;;5035636;28;20094;-77
2022/01/27 08:40:11;;;;;;;49.80;19.25;;;6.00;76.80;;;;;;5035520;28;20479;-77
2022/01/27 08:42:40;;;;;;;38.40;17.90;;;5.90;76.90;;;;;;5036252;28;20522;-77
2022/01/27 08:45:17;;;;;;;45.03;17.38;;;6.00;76.80;;;;;;5044370;28;20022;-77
2022/01/27 08:47:44;;;;;;;49.03;19.35;;;6.00;76.50;;;;;;5039726;28;20047;-77
2022/01/27 08:50:12;;;;;;;45.03;19.85;;;6.10;76.50;;;;;;5055521;28;20040;-74
2022/01/27 08:52:38;;;;;;;42.25;19.52;;;6.10;76.60;;;;;;5058580;28;20028;-77
2022/01/27 08:55:06;;;;;;;48.70;19.88;;;6.10;76.50;;;;;;5072055;28;20044;-77
2022/01/27 08:57:32;;;;;;;54.75;20.35;;;6.20;76.30;;;;;;5075018;28;20482;-77
2022/01/27 08:59:57;;;;;;;49.10;21.17;;;6.20;75.90;;;;;;5063383;28;20399;-77
2022/01/27 09:02:23;;;;;;;49.35;20.48;;;6.20;76.10;;;;;;5055290;28;20021;-77
2022/01/27 09:04:49;;;;;;;50.50;20.33;;;6.20;76.60;;;;;;5037749;28;20060;-77
2022/01/27 09:07:15;;;;;;;51.67;20.20;;;6.30;76.20;;;;;;5035298;28;20025;-77
2022/01/27 09:09:45;;;;;;;42.30;18.30;;;6.30;75.70;;;;;;5040188;28;20513;-77
2022/01/27 09:12:12;;;;;;;42.95;18.77;;;6.30;75.80;;;;;;5045099;28;20021;-74
2022/01/27 09:14:41;;;;;;;48.47;18.30;;;6.30;75.60;;;;;;5046489;28;20041;-74
2022/01/27 09:17:08;;;;;;;47.42;19.02;;;6.40;75.30;;;;;;5043809;28;20075;-77
2022/01/27 09:19:38;;;;;;;45.00;18.30;;;6.50;74.90;;;;;;5044431;28;20036;-74
2022/01/27 09:22:12;;;;;;;45.53;18.52;;;6.50;75.10;;;;;;5038943;28;20025;-77
2022/01/27 09:24:49;;;;;;;42.88;17.90;;;6.60;75.00;;;;;;5048354;28;20033;-74
2022/01/27 09:27:15;;;;;;;45.83;19.30;;;6.60;74.70;;;;;;5054887;28;20502;-77
2022/01/27 09:29:41;;;;;;;42.60;18.95;;;6.60;75.30;;;;;;5052288;28;20032;-74
2022/01/27 09:32:07;;;;;;;41.88;18.02;;;6.70;74.60;;;;;;5054434;28;20696;-77
2022/01/27 09:34:33;;;;;;;49.90;19.02;;;6.70;74.50;;;;;;5043537;28;20494;-74
2022/01/27 09:37:02;;;;;;;43.30;20.10;;;6.70;74.00;;;;;;5045010;28;20074;-77
2022/01/27 09:39:29;;;;;;;49.83;20.27;;;6.50;74.10;;;;;;5041792;28;20674;-77
2022/01/27 09:41:56;;;;;;;47.78;18.17;;;6.60;75.00;;;;;;5043380;28;20026;-77
2022/01/27 09:44:27;;;;;;;45.45;18.30;;;6.70;74.60;;;;;;5051511;28;20055;-77
2022/01/27 09:46:56;;;;;;;43.58;19.00;;;6.70;74.80;;;;;;5053011;28;20017;-77
2022/01/27 09:49:31;;;;;;;46.85;19.83;;;6.70;74.60;;;;;;5054308;28;20033;-76
2022/01/27 09:51:57;;;;;;;48.40;18.55;;;6.70;74.20;;;;;;5054543;28;20060;-76
2022/01/27 09:54:22;;;;;;;49.42;18.13;;;6.80;74.10;;;;;;5068847;28;20048;-76
2022/01/27 09:56:49;;;;;;;42.17;18.98;;;6.80;74.10;;;;;;5050544;28;20036;-76
2022/01/27 09:59:15;;;;;;;48.45;19.10;;;6.70;74.10;;;;;;5032902;28;20029;-76
2022/01/27 10:01:54;;;;;;;46.13;20.92;;;6.80;74.20;;;;;;5034234;28;20021;-76
2022/01/27 10:04:20;;;;;;;51.42;21.00;;;6.80;74.00;;;;;;5034208;28;20025;-76
2022/01/27 10:06:45;;;;;;;47.08;20.88;;;6.90;74.10;;;;;;5034294;28;20029;-76
2022/01/27 10:09:25;;;;;;;50.08;17.75;;;6.90;74.00;;;;;;5036905;28;20029;-77
2022/01/27 10:11:51;;;;;;;44.80;17.77;;;6.90;73.90;;;;;;5044028;28;20121;-76
2022/01/27 10:14:36;;;;;;;44.10;18.85;;;6.90;73.70;;;;;;5054330;28;20029;-78
2022/01/27 10:17:12;;;;;;;45.28;19.80;;;7.00;73.40;;;;;;5037752;28;20021;-77
2022/01/27 10:19:38;;;;;;;45.30;19.10;;;7.00;73.30;;;;;;5044470;28;20020;-77
2022/01/27 10:22:09;;;;;;;46.33;20.58;;;7.00;73.10;;;;;;5042878;28;20018;-77
2022/01/27 10:24:35;;;;;;;50.53;18.92;;;7.10;73.30;;;;;;5033943;28;20026;-77
2022/01/27 10:27:34;;;;;;;45.60;19.38;;;7.10;72.50;;;;;;5034371;28;20519;-77
2022/01/27 10:30:36;;;;;;;40.47;18.08;;;7.20;72.80;;;;;;5033937;28;20030;-77
2022/01/27 10:33:03;;;;;;;44.83;18.70;;;7.20;72.90;;;;;;5042369;28;20033;-77
2022/01/27 10:35:30;;;;;;;42.60;18.45;;;7.40;72.60;;;;;;5058872;28;20301;-77
2022/01/27 10:38:12;;;;;;;50.70;18.45;;;7.50;72.10;;;;;;5072333;28;20481;-77
2022/01/27 10:40:41;;;;;;;43.60;18.95;;;7.70;72.00;;;;;;5054440;28;20033;-77
2022/01/27 10:43:14;;;;;;;44.58;18.70;;;7.70;72.30;;;;;;5036460;28;20026;-77
2022/01/27 10:46:21;;;;;;;44.55;18.77;;;7.70;71.70;;;;;;5050052;28;20025;-77
2022/01/27 10:51:32;;;;;;;43.22;18.02;;;7.80;71.60;;;;;;5041585;28;20037;-77
2022/01/27 10:54:18;;;;;;;40.00;18.23;;;7.90;71.00;;;;;;5051222;28;20036;-78
2022/01/27 10:56:44;;;;;;;41.50;18.02;;;8.00;70.50;;;;;;5056078;28;20033;-77
2022/01/27 10:59:15;;;;;;;48.78;21.55;;;8.10;70.90;;;;;;5057440;28;20086;-77
2022/01/27 11:01:43;;;;;;;46.47;20.17;;;8.10;70.80;;;;;;5049780;28;20095;-78
2022/01/27 11:04:14;;;;;;;43.17;19.40;;;8.10;70.50;;;;;;5057595;28;20044;-77
2022/01/27 11:07:01;;;;;;;51.20;20.95;;;8.20;69.80;;;;;;5057573;28;20482;-77
2022/01/27 11:09:34;;;;;;;43.88;19.23;;;8.30;70.70;;;;;;5038578;28;20028;-77
2022/01/27 11:12:05;;;;;;;42.90;19.30;;;8.30;70.30;;;;;;5047820;28;20025;-79
2022/01/27 11:14:33;;;;;;;46.25;19.85;;;8.40;69.80;;;;;;5040681;28;20152;-78
2022/01/27 11:17:00;;;;;;;43.35;19.42;;;8.40;70.10;;;;;;5041629;28;20130;-77
2022/01/27 11:22:58;;;;;;;42.88;17.40;;;8.30;70.10;;;;;;5045802;28;20041;-79
2022/01/27 11:27:47;;;;;;;46.28;19.58;;;8.60;69.90;;;;;;5041380;28;20045;-78
2022/01/27 11:30:22;;;;;;;43.53;18.65;;;8.60;69.00;;;;;;5041691;28;20047;-78
2022/01/27 11:33:01;;;;;;;44.90;19.42;;;8.60;69.20;;;;;;5040138;28;20036;-79
2022/01/27 11:35:27;;;;;;;46.90;20.45;;;8.70;69.00;;;;;;5053364;28;20036;-78
2022/01/27 11:38:03;;;;;;;43.15;19.70;;;8.70;69.50;;;;;;5063162;28;20032;-77
2022/01/27 11:40:40;;;;;;;42.05;19.38;;;8.90;68.70;;;;;;5041813;28;20033;-77
2022/01/27 11:43:07;;;;;;;43.97;20.05;;;9.00;68.30;;;;;;5043936;28;20104;-77
2022/01/27 11:45:46;;;;;;;37.30;17.83;;;9.00;68.60;;;;;;5051897;28;20080;-77
2022/01/27 11:48:21;;;;;;;46.45;19.73;;;9.00;67.90;;;;;;5040728;28;20522;-78
2022/01/27 11:50:57;;;;;;;38.15;20.25;;;9.00;68.10;;;;;;5049018;28;20036;-77
2022/01/27 11:53:32;;;;;;;43.47;19.10;;;9.10;68.50;;;;;;5044606;28;20620;-77
2022/01/27 11:56:00;;;;;;;47.72;20.63;;;9.10;68.30;;;;;;5044261;28;20052;-79
2022/01/27 11:58:26;;;;;;;43.17;19.92;;;9.20;67.90;;;;;;5038018;28;20040;-79
2022/01/27 12:01:11;;;;;;;43.22;19.08;;;9.20;67.00;;;;;;5054186;28;20021;-79
2022/01/27 12:03:38;;;;;;;45.95;20.17;;;9.30;66.60;;;;;;5044173;28;20033;-78
2022/01/27 12:06:22;;;;;;;39.90;19.42;;;9.40;67.90;;;;;;5036488;28;20114;-77
2022/01/27 12:08:49;;;;;;;40.78;18.90;;;9.50;67.40;;;;;;5046120;28;20044;-78
2022/01/27 12:11:39;;;;;;;43.15;20.58;;;9.40;67.70;;;;;;5044907;28;20025;-78
2022/01/27 12:14:05;;;;;;;46.55;20.60;;;9.40;67.90;;;;;;5049416;28;20104;-77
2022/01/27 12:19:02;;;;;;;42.25;19.58;;;9.50;67.60;;;;;;5046627;28;20026;-78
2022/01/27 12:21:34;;;;;;;42.63;20.63;;;9.50;67.70;;;;;;5045012;28;20018;-78
2022/01/27 12:24:13;;;;;;;38.58;19.00;;;9.60;67.10;;;;;;5044094;28;20032;-78
2022/01/27 12:26:59;;;;;;;46.38;19.63;;;9.50;67.60;;;;;;5046044;28;20029;-78
2022/01/27 12:29:28;;;;;;;44.95;20.02;;;9.50;66.60;;;;;;5043256;28;20021;-77
2022/01/27 12:31:56;;;;;;;41.97;19.33;;;9.40;67.70;;;;;;5050703;28;20655;-78
2022/01/27 12:34:22;;;;;;;44.42;18.52;;;9.40;67.60;;;;;;5045581;28;20029;-79
2022/01/27 12:37:07;;;;;;;46.67;20.23;;;9.50;67.50;;;;;;5054317;28;20403;-78
2022/01/27 12:39:42;;;;;;;46.13;19.50;;;9.60;67.80;;;;;;5040773;28;20076;-78
2022/01/27 12:42:15;;;;;;;43.85;19.13;;;9.70;67.40;;;;;;5043884;28;20037;-79
2022/01/27 12:45:14;;;;;;;42.58;19.65;;;9.80;67.60;;;;;;5043028;28;20332;-78
2022/01/27 12:47:44;;;;;;;43.83;20.33;;;9.70;67.20;;;;;;5042552;28;20048;-77
2022/01/27 12:50:18;;;;;;;45.17;18.98;;;9.80;67.90;;;;;;5042033;28;20037;-78
2022/01/27 12:52:47;;;;;;;44.95;20.38;;;9.90;66.50;;;;;;5043813;28;20033;-78
2022/01/27 12:55:18;;;;;;;42.15;20.08;;;10.00;66.60;;;;;;5064725;28;20042;-79
2022/01/27 12:57:53;;;;;;;45.15;20.33;;;10.10;67.10;;;;;;5035682;28;20610;-79
2022/01/27 13:00:19;;;;;;;35.67;17.05;;;10.00;66.70;;;;;;5031831;28;20029;-78
2022/01/27 13:02:45;;;;;;;40.22;19.40;;;10.00;66.80;;;;;;5054101;28;20044;-79
2022/01/27 13:05:10;;;;;;;42.25;19.85;;;10.00;66.30;;;;;;5054581;28;20154;-79
2022/01/27 13:07:37;;;;;;;40.88;19.48;;;10.10;66.50;;;;;;5053550;28;20032;-79
2022/01/27 13:10:10;;;;;;;37.28;19.23;;;10.20;66.40;;;;;;5053900;28;20024;-79
2022/01/27 13:12:43;;;;;;;42.97;20.73;;;10.10;66.50;;;;;;5050602;28;20059;-78
2022/01/27 13:15:13;;;;;;;40.97;20.05;;;10.20;67.00;;;;;;5053165;28;20075;-78
2022/01/27 13:20:23;;;;;;;42.53;19.42;;;10.20;67.10;;;;;;5055298;28;20090;-79
2022/01/27 13:22:54;;;;;;;45.53;21.40;;;10.20;66.50;;;;;;5054934;28;20048;-78
2022/01/27 13:25:22;;;;;;;43.45;20.70;;;10.20;66.60;;;;;;5053537;28;20025;-78
2022/01/27 13:28:23;;;;;;;40.05;19.15;;;10.30;66.60;;;;;;5054820;28;20112;-78
2022/01/27 13:30:50;;;;;;;;;;;10.20;67.20;;;;;;5035347;28;20029;-79
2022/01/27 13:33:22;;;;;;;41.38;19.02;;;10.20;66.70;;;;;;5035024;28;19909;-78
2022/01/27 13:35:49;;;;;;;43.00;19.17;;;10.20;67.50;;;;;;5034594;28;20030;-78
2022/01/27 13:38:21;;;;;;;40.53;18.38;;;10.20;66.90;;;;;;5037426;28;20029;-78
2022/01/27 13:43:39;;;;;;;39.67;19.25;;;10.00;67.80;;;;;;5054876;28;20107;-78